Time;durP1;ratioP1;P1;durP2;ratioP2;P2;SDS_P1;SDS_P2;PMS_P1;PMS_P2;Temp;Humidity;BMP_temperature;BMP_pressure;BME280_temperature;BME280_humidity;BME280_pressure;Samples;Min_cycle;Max_cycle;Signal;HPM_P1;HPM_P2
2023/04/05 00:00:09;;;;;;;14.00;7.35;;;;;;;4.10;100.00;102633.91;4999250;28;20022;-68
2023/04/05 00:02:35;;;;;;;11.82;7.57;;;;;;;4.12;100.00;102626.13;5025159;28;20017;-68
2023/04/05 00:05:02;;;;;;;11.77;6.57;;;;;;;4.14;100.00;102621.78;5025716;28;20503;-67
2023/04/05 00:07:27;;;;;;;14.88;8.15;;;;;;;4.15;100.00;102632.25;5008249;28;20112;-68
2023/04/05 00:09:52;;;;;;;11.57;7.30;;;;;;;4.17;100.00;102621.84;5022945;28;20552;-67
2023/04/05 00:12:18;;;;;;;13.23;8.23;;;;;;;4.11;100.00;102620.00;5025709;28;20734;-67
2023/04/05 00:14:44;;;;;;;10.65;6.95;;;;;;;4.03;100.00;102617.22;5024311;28;20029;-67
2023/04/05 00:17:10;;;;;;;13.07;7.80;;;;;;;3.90;100.00;102617.78;5024568;28;20094;-67
2023/04/05 00:19:36;;;;;;;12.27;7.88;;;;;;;3.97;100.00;102617.06;4991430;28;20794;-67
2023/04/05 00:22:02;;;;;;;11.45;7.43;;;;;;;3.97;100.00;102614.47;5025051;28;20464;-68
2023/04/05 00:24:28;;;;;;;10.70;7.30;;;;;;;3.95;100.00;102613.56;5006180;28;20112;-66
2023/04/05 00:26:53;;;;;;;15.32;7.97;;;;;;;3.86;100.00;102608.13;5024767;28;20068;-68
2023/04/05 00:29:19;;;;;;;17.13;8.18;;;;;;;3.86;100.00;102609.03;5023876;28;20021;-66
2023/04/05 00:31:44;;;;;;;13.48;7.38;;;;;;;3.85;100.00;102607.25;4999259;28;20129;-68
2023/04/05 00:34:11;;;;;;;11.40;7.57;;;;;;;3.83;100.00;102601.13;5023888;28;20060;-67
2023/04/05 00:36:36;;;;;;;15.63;8.13;;;;;;;3.81;100.00;102601.91;5028538;28;20056;-69
2023/04/05 00:39:02;;;;;;;12.00;7.57;;;;;;;3.81;100.00;102604.53;5026000;28;20407;-66
2023/04/05 00:41:27;;;;;;;13.95;7.50;;;;;;;3.69;100.00;102600.81;5022059;28;20041;-67
2023/04/05 00:43:52;;;;;;;13.38;7.88;;;;;;;3.72;100.00;102594.78;5015069;28;20026;-67
2023/04/05 00:46:18;;;;;;;14.43;8.15;;;;;;;3.72;100.00;102595.66;5025164;28;20040;-68
2023/04/05 00:48:43;;;;;;;11.55;7.70;;;;;;;3.72;100.00;102595.66;5029144;28;20025;-68
2023/04/05 00:51:10;;;;;;;14.68;8.43;;;;;;;3.67;100.00;102594.66;5010977;28;20010;-68
2023/04/05 00:53:36;;;;;;;11.73;7.38;;;;;;;3.63;100.00;102595.44;5028968;28;20057;-68
2023/04/05 00:56:02;;;;;;;15.25;7.85;;;;;;;3.67;100.00;102589.44;5016447;28;20067;-66
2023/04/05 00:58:28;;;;;;;16.63;8.35;;;;;;;3.61;100.00;102591.94;5005600;28;20592;-68
2023/04/05 01:01:12;;;;;;;13.82;8.50;;;;;;;3.51;100.00;102589.09;5010900;28;20110;-68
2023/04/05 01:03:42;;;;;;;13.57;7.72;;;;;;;3.52;100.00;102584.75;4996532;28;20025;-67
2023/04/05 01:06:27;;;;;;;18.38;9.30;;;;;;;3.53;100.00;102579.56;5011185;28;20025;-68
2023/04/05 01:09:44;;;;;;;15.05;8.25;;;;;;;3.45;100.00;102583.72;5028711;28;20112;-66
2023/04/05 01:12:11;;;;;;;14.15;8.20;;;;;;;3.43;100.00;102576.72;4994486;28;20056;-67
2023/04/05 01:14:49;;;;;;;13.52;7.82;;;;;;;3.36;100.00;102580.91;4991972;28;20029;-66
2023/04/05 01:17:15;;;;;;;14.00;8.52;;;;;;;3.33;100.00;102580.81;5008962;28;20030;-68
2023/04/05 01:19:41;;;;;;;11.85;7.80;;;;;;;3.37;100.00;102573.13;5028541;28;20029;-68
2023/04/05 01:22:47;;;;;;;10.95;7.70;;;;;;;3.36;100.00;102573.06;5028306;28;20033;-67
2023/04/05 01:25:41;;;;;;;12.55;7.68;;;;;;;3.44;100.00;102570.66;4980419;28;20057;-67
2023/04/05 01:28:33;;;;;;;15.32;7.35;;;;;;;3.44;100.00;102574.16;5027158;28;20065;-67
2023/04/05 01:31:07;;;;;;;14.00;7.97;;;;;;;3.33;100.00;102566.06;5027528;28;20021;-68
2023/04/05 01:33:50;;;;;;;11.52;7.28;;;;;;;3.21;100.00;102566.66;5010631;28;20124;-68
2023/04/05 01:36:53;;;;;;;15.70;8.70;;;;;;;3.15;100.00;102563.91;5027458;28;20565;-66
2023/04/05 01:39:20;;;;;;;13.98;7.63;;;;;;;3.14;100.00;102567.34;5009623;28;20033;-66
2023/04/05 01:41:45;;;;;;;12.20;7.43;;;;;;;3.05;100.00;102562.78;5027341;28;20029;-68
2023/04/05 01:44:11;;;;;;;12.32;7.47;;;;;;;2.99;100.00;102560.03;5027291;28;20025;-67
2023/04/05 01:46:36;;;;;;;16.42;8.38;;;;;;;2.97;100.00;102562.59;5027271;28;20025;-67
2023/04/05 01:49:02;;;;;;;12.90;7.63;;;;;;;3.02;100.00;102558.41;5022359;28;20494;-70
2023/04/05 01:51:27;;;;;;;14.23;8.75;;;;;;;3.03;100.00;102557.53;5010522;28;20025;-68
2023/04/05 01:53:53;;;;;;;14.00;8.70;;;;;;;3.01;100.00;102561.81;5023839;28;20379;-68
2023/04/05 01:56:18;;;;;;;14.85;8.23;;;;;;;2.99;100.00;102549.63;5015617;28;20014;-66
2023/04/05 01:58:43;;;;;;;18.38;8.07;;;;;;;2.90;100.00;102550.25;5025741;28;20057;-68
2023/04/05 02:01:09;;;;;;;12.23;7.72;;;;;;;2.93;100.00;102546.84;5027152;28;20040;-66
2023/04/05 02:03:34;;;;;;;12.27;7.72;;;;;;;2.95;100.00;102537.34;5026765;28;20479;-68
2023/04/05 02:06:00;;;;;;;19.52;8.10;;;;;;;2.97;100.00;102541.75;5027591;28;20448;-68
2023/04/05 02:08:25;;;;;;;14.38;7.43;;;;;;;2.98;100.00;102535.69;5027194;28;20033;-67
2023/04/05 02:10:54;;;;;;;14.25;7.32;;;;;;;3.02;100.00;102529.75;5026998;28;20053;-67
2023/04/05 02:13:21;;;;;;;15.57;7.53;;;;;;;2.98;100.00;102525.28;5023990;28;20464;-67
2023/04/05 02:15:49;;;;;;;18.05;7.75;;;;;;;2.93;100.00;102529.50;5024035;28;20029;-66
2023/04/05 02:18:20;;;;;;;15.40;7.82;;;;;;;2.88;100.00;102531.09;5024463;28;20092;-69
2023/04/05 02:20:46;;;;;;;16.88;7.65;;;;;;;2.88;100.00;102524.19;5024052;28;20448;-66
2023/04/05 02:23:12;;;;;;;17.92;7.30;;;;;;;2.82;100.00;102520.53;5007210;28;20025;-68
2023/04/05 02:25:37;;;;;;;11.27;7.40;;;;;;;2.80;100.00;102523.09;4993253;28;20527;-67
2023/04/05 02:28:02;;;;;;;14.10;7.68;;;;;;;2.80;100.00;102517.03;5025917;28;20036;-68
2023/04/05 02:30:28;;;;;;;10.65;7.70;;;;;;;2.81;100.00;102510.97;5027180;28;20079;-67
2023/04/05 02:32:54;;;;;;;14.73;8.93;;;;;;;2.83;100.00;102506.69;5025405;28;20041;-67
2023/04/05 02:35:20;;;;;;;10.25;7.07;;;;;;;2.82;100.00;102510.09;5024443;28;20022;-66
2023/04/05 02:37:45;;;;;;;11.82;7.20;;;;;;;2.76;100.00;102501.31;5026506;28;20084;-68
2023/04/05 02:40:13;;;;;;;11.52;7.00;;;;;;;2.78;100.00;102504.84;5026368;28;20207;-68
2023/04/05 02:42:39;;;;;;;13.82;7.22;;;;;;;2.73;100.00;102506.44;4996776;28;20056;-66
2023/04/05 02:45:05;;;;;;;12.13;7.40;;;;;;;2.71;100.00;102502.91;5026078;28;20064;-65
2023/04/05 02:47:30;;;;;;;15.25;7.60;;;;;;;2.63;100.00;102502.72;5025453;28;20029;-66
2023/04/05 02:49:56;;;;;;;12.10;7.85;;;;;;;2.53;100.00;102505.94;5024397;28;20028;-68
2023/04/05 02:52:21;;;;;;;11.93;6.93;;;;;;;2.47;100.00;102498.81;5025948;28;20531;-68
2023/04/05 02:54:46;;;;;;;13.25;7.95;;;;;;;2.42;100.00;102494.34;5026096;28;20051;-68
2023/04/05 02:57:12;;;;;;;12.55;7.40;;;;;;;2.36;100.00;102489.84;5025885;28;20029;-68
2023/04/05 02:59:38;;;;;;;17.17;7.75;;;;;;;2.31;100.00;102491.44;5025942;28;20048;-66
2023/04/05 03:02:08;;;;;;;15.13;8.45;;;;;;;2.30;100.00;102489.69;5008521;28;20025;-66
2023/04/05 03:04:34;;;;;;;14.65;8.75;;;;;;;2.30;100.00;102492.28;5026444;28;20022;-66
2023/04/05 03:07:01;;;;;;;15.55;7.90;;;;;;;2.22;100.00;102485.16;5025847;28;20473;-68
2023/04/05 03:09:32;;;;;;;15.60;8.07;;;;;;;2.21;100.00;102490.31;5009269;28;20060;-66
2023/04/05 03:12:01;;;;;;;14.63;8.55;;;;;;;2.18;100.00;102483.31;5024425;28;20389;-68
2023/04/05 03:14:26;;;;;;;18.95;8.80;;;;;;;2.19;100.00;102482.47;5026180;28;20041;-67
2023/04/05 03:16:52;;;;;;;16.13;8.68;;;;;;;2.17;100.00;102480.66;5026057;28;20103;-68
2023/04/05 03:19:21;;;;;;;12.43;8.30;;;;;;;2.19;100.00;102486.78;5025677;28;20029;-68
2023/04/05 03:21:47;;;;;;;14.13;7.97;;;;;;;2.18;100.00;102485.91;5008677;28;20052;-68
2023/04/05 03:24:13;;;;;;;17.13;8.45;;;;;;;2.10;100.00;102482.19;5012025;28;20238;-66
2023/04/05 03:26:38;;;;;;;12.38;6.95;;;;;;;2.05;100.00;102486.41;5007696;28;20567;-66
2023/04/05 03:29:03;;;;;;;19.20;8.98;;;;;;;1.97;100.00;102487.06;5023957;28;20040;-67
2023/04/05 03:31:29;;;;;;;14.73;8.18;;;;;;;1.91;100.00;102484.28;5026111;28;20471;-67
2023/04/05 03:33:54;;;;;;;15.98;8.70;;;;;;;1.85;100.00;102484.09;5024748;28;20640;-67
2023/04/05 03:36:20;;;;;;;15.40;8.68;;;;;;;1.83;100.00;102483.16;5025352;28;20025;-66
2023/04/05 03:38:46;;;;;;;17.17;9.52;;;;;;;1.80;100.00;102476.16;4990907;28;20022;-69
2023/04/05 03:41:11;;;;;;;15.38;9.02;;;;;;;1.79;100.00;102483.91;5008179;28;20029;-67
2023/04/05 03:43:37;;;;;;;17.92;8.73;;;;;;;1.78;100.00;102477.88;5022781;28;20018;-67
2023/04/05 03:46:02;;;;;;;15.30;8.95;;;;;;;1.80;100.00;102472.72;5026091;28;20036;-68
2023/04/05 03:48:27;;;;;;;16.83;8.68;;;;;;;1.74;100.00;102482.06;5026019;28;20545;-68
2023/04/05 03:50:53;;;;;;;16.42;9.30;;;;;;;1.70;100.00;102476.75;5025840;28;20049;-68
2023/04/05 03:53:18;;;;;;;13.90;8.40;;;;;;;1.68;100.00;102484.50;5023629;28;20026;-67
2023/04/05 03:55:48;;;;;;;17.05;9.75;;;;;;;1.65;100.00;102484.41;5008275;28;20075;-67
2023/04/05 03:58:13;;;;;;;19.23;9.75;;;;;;;1.61;100.00;102485.16;5024883;28;20042;-68
2023/04/05 04:00:39;;;;;;;17.05;8.90;;;;;;;1.61;100.00;102490.34;5007537;28;20349;-67
2023/04/05 04:03:04;;;;;;;23.02;9.85;;;;;;;1.56;100.00;102485.00;5024419;28;20029;-68
2023/04/05 04:05:30;;;;;;;14.95;9.00;;;;;;;1.55;100.00;102472.84;5028265;28;20112;-66
2023/04/05 04:07:55;;;;;;;15.88;9.93;;;;;;;1.55;100.00;102474.56;5028891;28;20033;-67
2023/04/05 04:10:20;;;;;;;20.17;10.75;;;;;;;1.50;100.00;102475.31;5029281;28;20053;-66
2023/04/05 04:12:46;;;;;;;21.40;9.55;;;;;;;1.50;100.00;102483.09;5009105;28;20048;-67
2023/04/05 04:15:11;;;;;;;19.67;9.90;;;;;;;1.49;100.00;102476.16;5028918;28;20021;-67
2023/04/05 04:17:37;;;;;;;15.85;10.15;;;;;;;1.51;100.00;102471.00;5027479;28;20064;-68
2023/04/05 04:20:09;;;;;;;18.38;10.75;;;;;;;1.52;100.00;102472.75;5027958;28;20116;-68
2023/04/05 04:22:37;;;;;;;18.70;9.73;;;;;;;1.54;100.00;102475.41;5015594;28;20089;-68
2023/04/05 04:25:13;;;;;;;19.70;10.75;;;;;;;1.63;100.00;102478.28;5019075;28;20099;-67
2023/04/05 04:27:40;;;;;;;19.92;11.25;;;;;;;1.58;100.00;102466.88;5029248;28;20535;-67
2023/04/05 04:30:10;;;;;;;19.55;10.48;;;;;;;1.55;100.00;102470.25;5027628;28;20057;-66
2023/04/05 04:32:53;;;;;;;19.00;10.15;;;;;;;1.46;100.00;102468.25;5029526;28;20037;-66
2023/04/05 04:35:27;;;;;;;17.30;10.30;;;;;;;1.45;100.00;102466.50;5029237;28;20486;-68
2023/04/05 04:38:04;;;;;;;22.60;10.30;;;;;;;1.50;100.00;102470.13;5028851;28;20052;-68
2023/04/05 04:40:45;;;;;;;22.83;12.07;;;;;;;1.53;100.00;102468.47;5019643;28;20068;-68
2023/04/05 04:43:17;;;;;;;22.65;11.27;;;;;;;1.54;100.00;102460.72;5012836;28;20061;-68
2023/04/05 04:45:47;;;;;;;18.77;11.80;;;;;;;1.55;100.00;102466.75;5028447;28;20605;-66
2023/04/05 04:48:15;;;;;;;22.67;12.07;;;;;;;1.59;100.00;102468.63;5028095;28;20125;-66
2023/04/05 04:50:45;;;;;;;20.55;11.38;;;;;;;1.62;100.00;102463.50;5028008;28;20484;-67
2023/04/05 04:53:12;;;;;;;25.02;11.93;;;;;;;1.61;100.00;102466.97;5024653;28;20022;-66
2023/04/05 04:55:41;;;;;;;24.30;12.13;;;;;;;1.56;100.00;102461.63;5028504;28;20040;-67
2023/04/05 04:58:10;;;;;;;20.85;13.27;;;;;;;1.55;100.00;102467.66;5027758;28;20117;-67
2023/04/05 05:00:40;;;;;;;20.42;12.57;;;;;;;1.53;100.00;102465.84;5024291;28;20522;-67
2023/04/05 05:03:07;;;;;;;19.65;12.13;;;;;;;1.56;100.00;102466.81;5028041;28;20030;-70
2023/04/05 05:05:32;;;;;;;22.40;12.50;;;;;;;1.56;100.00;102465.97;5027785;28;20025;-68
2023/04/05 05:07:58;;;;;;;22.30;12.15;;;;;;;1.61;100.00;102460.06;5010659;28;20025;-67
2023/04/05 05:10:23;;;;;;;25.27;12.93;;;;;;;1.59;100.00;102466.00;5027358;28;20024;-65
2023/04/05 05:12:48;;;;;;;22.92;12.25;;;;;;;1.62;100.00;102461.81;5010231;28;20053;-68
2023/04/05 05:15:14;;;;;;;25.25;12.35;;;;;;;1.66;100.00;102459.31;5008675;28;20056;-66
2023/04/05 05:17:39;;;;;;;21.20;12.75;;;;;;;1.63;100.00;102463.56;5010062;28;20025;-67
2023/04/05 05:20:11;;;;;;;22.35;12.38;;;;;;;1.71;100.00;102466.38;5028140;28;20017;-68
2023/04/05 05:22:37;;;;;;;20.95;12.55;;;;;;;1.75;100.00;102467.38;5026886;28;20029;-68
2023/04/05 05:25:04;;;;;;;27.67;12.15;;;;;;;1.82;100.00;102468.41;5028026;28;20506;-68
2023/04/05 05:27:30;;;;;;;20.35;12.18;;;;;;;1.82;100.00;102465.81;5028175;28;20052;-67
2023/04/05 05:29:55;;;;;;;22.63;12.80;;;;;;;1.88;100.00;102472.09;5027466;28;20053;-67
2023/04/05 05:32:22;;;;;;;24.65;12.85;;;;;;;1.87;100.00;102475.50;5025738;28;20044;-69
2023/04/05 05:34:47;;;;;;;20.63;12.70;;;;;;;1.88;100.00;102474.69;5010147;28;20025;-66
2023/04/05 05:37:13;;;;;;;24.27;12.75;;;;;;;1.93;100.00;102476.53;5026774;28;20036;-66
2023/04/05 05:39:38;;;;;;;19.45;13.20;;;;;;;1.92;100.00;102478.25;5009759;28;20498;-67
2023/04/05 05:42:04;;;;;;;21.23;12.70;;;;;;;2.04;100.00;102472.50;5026313;28;20037;-67
2023/04/05 05:44:30;;;;;;;20.27;11.70;;;;;;;2.08;100.00;102478.69;5026817;28;20014;-68
2023/04/05 05:46:55;;;;;;;19.80;12.43;;;;;;;2.10;100.00;102477.88;5028392;28;20033;-66
2023/04/05 05:49:22;;;;;;;23.10;12.23;;;;;;;2.17;100.00;102478.97;5008561;28;20026;-66
2023/04/05 05:51:48;;;;;;;26.27;12.38;;;;;;;2.22;100.00;102482.56;5024744;28;20028;-67
2023/04/05 05:54:13;;;;;;;25.73;12.25;;;;;;;2.29;100.00;102474.91;5024234;28;20468;-66
2023/04/05 05:56:38;;;;;;;19.00;12.95;;;;;;;2.37;100.00;102471.69;5025028;28;20021;-66
2023/04/05 05:59:04;;;;;;;20.02;11.35;;;;;;;2.43;100.00;102473.56;5005993;28;20029;-68
2023/04/05 06:01:29;;;;;;;20.17;12.02;;;;;;;2.48;100.00;102469.38;5025536;28;20034;-68
2023/04/05 06:03:54;;;;;;;16.77;11.02;;;;;;;2.62;100.00;102469.72;5000802;28;20058;-68
2023/04/05 06:06:20;;;;;;;20.00;12.18;;;;;;;2.74;100.00;102469.16;5001475;28;20079;-68
2023/04/05 06:08:46;;;;;;;19.75;11.82;;;;;;;2.85;100.00;102473.72;5025336;28;20009;-66
2023/04/05 06:11:21;;;;;;;17.05;11.20;;;;;;;2.95;100.00;102480.06;5027045;28;20041;-66
2023/04/05 06:13:47;;;;;;;19.50;11.10;;;;;;;3.03;100.00;102478.53;5007907;28;20025;-68
2023/04/05 06:16:12;;;;;;;18.25;10.65;;;;;;;3.10;100.00;102479.56;5027104;28;20017;-67
2023/04/05 06:18:38;;;;;;;17.20;10.35;;;;;;;3.17;100.00;102486.69;5025962;28;20029;-67
2023/04/05 06:21:03;;;;;;;17.63;10.23;;;;;;;3.27;100.00;102483.44;5026145;28;20029;-68
2023/04/05 06:23:28;;;;;;;15.63;10.10;;;;;;;3.37;100.00;102479.31;5025110;28;21336;-67
2023/04/05 06:25:55;;;;;;;18.30;10.40;;;;;;;3.51;100.00;102482.22;5026007;28;20029;-68
2023/04/05 06:28:21;;;;;;;15.50;10.05;;;;;;;3.58;100.00;102479.75;5023500;28;20028;-68
2023/04/05 06:30:46;;;;;;;18.75;9.52;;;;;;;3.67;100.00;102482.56;5025528;28;20214;-67
2023/04/05 06:33:11;;;;;;;15.70;9.18;;;;;;;3.73;100.00;102484.44;5017141;28;20192;-67
2023/04/05 06:35:37;;;;;;;16.50;9.25;;;;;;;3.80;100.00;102483.72;5020348;28;20070;-67
2023/04/05 06:38:02;;;;;;;23.35;9.40;;;;;;;3.90;100.00;102485.66;5024349;28;20528;-66
2023/04/05 06:40:27;;;;;;;16.33;9.40;;;;;;;3.91;100.00;102482.19;5025143;28;20014;-68
2023/04/05 06:42:53;;;;;;;15.57;8.85;;;;;;;4.02;100.00;102474.59;4989208;28;20079;-67
2023/04/05 06:45:19;;;;;;;14.93;9.20;;;;;;;4.14;100.00;102483.50;5024769;28;20060;-67
2023/04/05 06:47:44;;;;;;;14.55;8.95;;;;;;;4.27;100.00;102475.06;5023767;28;20120;-68
2023/04/05 06:50:10;;;;;;;16.52;9.25;;;;;;;4.35;100.00;102472.59;5005847;28;20025;-68
2023/04/05 06:52:35;;;;;;;11.73;8.65;;;;;;;4.46;100.00;102474.53;5024679;28;20053;-69
2023/04/05 06:55:00;;;;;;;17.55;9.18;;;;;;;4.61;100.00;102473.94;5024330;28;20018;-68
2023/04/05 06:57:26;;;;;;;15.75;8.90;;;;;;;4.76;100.00;102468.94;5023857;28;20067;-67
2023/04/05 06:59:52;;;;;;;21.83;9.57;;;;;;;4.77;100.00;102473.34;5023692;28;20033;-69
2023/04/05 07:02:18;;;;;;;18.95;9.10;;;;;;;4.88;100.00;102480.47;5024000;28;20029;-69
2023/04/05 07:04:43;;;;;;;15.98;8.98;;;;;;;4.98;100.00;102474.53;5024635;28;20036;-67
2023/04/05 07:07:09;;;;;;;13.65;7.90;;;;;;;5.08;100.00;102469.47;5024308;28;20029;-68
2023/04/05 07:09:35;;;;;;;20.77;9.32;;;;;;;5.15;100.00;102466.09;5022721;28;20025;-66
2023/04/05 07:12:02;;;;;;;14.93;8.32;;;;;;;5.25;100.00;102472.31;5022970;28;20041;-67
2023/04/05 07:14:35;;;;;;;18.65;8.27;;;;;;;5.23;100.00;102468.78;5019639;28;20026;-67
2023/04/05 07:17:03;;;;;;;8.02;6.75;;;;;;;5.35;100.00;102455.91;5022653;28;20025;-67
2023/04/05 07:19:28;;;;;;;14.25;8.10;;;;;;;5.49;99.57;102456.13;5024996;28;20529;-67
2023/04/05 07:21:54;;;;;;;11.57;7.13;;;;;;;5.57;99.22;102458.84;5024827;28;20037;-67
2023/04/05 07:24:20;;;;;;;13.52;7.15;;;;;;;5.60;96.61;102460.59;5022461;28;20456;-65
2023/04/05 07:26:46;;;;;;;15.85;7.78;;;;;;;5.73;96.21;102456.41;5025928;28;20105;-67
2023/04/05 07:29:11;;;;;;;10.23;6.80;;;;;;;5.77;95.13;102455.56;5023710;28;20029;-67
2023/04/05 07:31:38;;;;;;;18.17;7.50;;;;;;;5.80;91.12;102451.28;5025568;28;20033;-66
2023/04/05 07:34:03;;;;;;;10.32;6.72;;;;;;;5.97;91.49;102447.97;5023831;28;20499;-67
2023/04/05 07:36:30;;;;;;;8.90;6.15;;;;;;;6.00;89.10;102452.38;5008605;28;20139;-66
2023/04/05 07:38:56;;;;;;;10.20;6.18;;;;;;;5.98;89.41;102448.84;5024050;28;20125;-67
2023/04/05 07:41:23;;;;;;;10.40;6.18;;;;;;;6.11;89.86;102456.00;5029910;28;20044;-66
2023/04/05 07:43:48;;;;;;;13.85;6.93;;;;;;;6.24;90.36;102457.03;5029924;28;20066;-66
2023/04/05 07:46:14;;;;;;;10.75;6.55;;;;;;;6.40;90.58;102451.94;5015588;28;20030;-67
2023/04/05 07:48:39;;;;;;;10.55;6.63;;;;;;;6.47;90.81;102450.25;5009422;28;20018;-67
2023/04/05 07:51:06;;;;;;;9.55;6.90;;;;;;;6.46;90.38;102452.00;5007836;28;20018;-67
2023/04/05 07:53:31;;;;;;;11.95;6.30;;;;;;;6.62;90.83;102446.91;5022279;28;20179;-66
2023/04/05 07:55:57;;;;;;;15.38;7.38;;;;;;;6.75;89.25;102453.13;5027957;28;20519;-65
2023/04/05 07:58:24;;;;;;;9.52;6.22;;;;;;;6.86;87.49;102446.22;5026711;28;20116;-67
2023/04/05 08:00:49;;;;;;;10.05;5.93;;;;;;;6.88;86.16;102443.59;5020047;28;20049;-65
2023/04/05 08:03:14;;;;;;;13.27;6.78;;;;;;;6.97;86.34;102445.41;5007490;28;20437;-66
2023/04/05 08:05:40;;;;;;;11.35;6.82;;;;;;;7.07;85.54;102452.47;5006329;28;20037;-65
2023/04/05 08:08:07;;;;;;;10.63;5.55;;;;;;;7.05;81.09;102449.84;5007595;28;20177;-66
2023/04/05 08:10:37;;;;;;;16.60;7.68;;;;;;;7.20;80.11;102456.06;5009105;28;20026;-65
2023/04/05 08:13:04;;;;;;;12.25;7.07;;;;;;;7.17;79.82;102445.56;5014412;28;20087;-66
2023/04/05 08:15:32;;;;;;;6.78;5.50;;;;;;;7.10;79.06;102442.00;5029330;28;20021;-66
2023/04/05 08:17:57;;;;;;;11.98;6.13;;;;;;;7.19;80.85;102443.81;5029026;28;20143;-66
2023/04/05 08:20:22;;;;;;;10.30;6.90;;;;;;;7.29;80.18;102437.75;5021471;28;20069;-66
2023/04/05 08:22:47;;;;;;;18.00;6.72;;;;;;;7.38;81.83;102442.19;5010559;28;20026;-66
2023/04/05 08:25:13;;;;;;;10.50;6.82;;;;;;;7.45;82.19;102440.47;5007510;28;20029;-65
2023/04/05 08:27:38;;;;;;;9.93;6.68;;;;;;;7.52;83.32;102434.38;5010070;28;20034;-66
2023/04/05 08:30:04;;;;;;;10.13;6.28;;;;;;;7.68;82.42;102431.81;5028009;28;20059;-66
2023/04/05 08:32:31;;;;;;;10.90;6.22;;;;;;;7.74;80.27;102433.59;5027999;28;20029;-67
2023/04/05 08:34:57;;;;;;;10.27;5.53;;;;;;;7.77;81.48;102428.38;5024201;28;20022;-66
2023/04/05 08:37:22;;;;;;;10.50;5.95;;;;;;;7.96;81.21;102437.16;4990929;28;20386;-65
2023/04/05 08:39:47;;;;;;;11.73;6.25;;;;;;;7.79;79.98;102427.50;5007459;28;20068;-65
2023/04/05 08:42:16;;;;;;;8.88;5.85;;;;;;;8.05;79.57;102425.81;4996333;28;20468;-65
2023/04/05 08:44:43;;;;;;;8.18;5.25;;;;;;;8.26;79.30;102429.34;5011267;28;20029;-65
2023/04/05 08:47:13;;;;;;;9.18;5.90;;;;;;;8.26;76.27;102424.09;5027518;28;20029;-66
2023/04/05 08:49:42;;;;;;;8.85;6.15;;;;;;;8.39;72.45;102422.34;5018488;28;20026;-65
2023/04/05 08:52:07;;;;;;;10.15;5.90;;;;;;;8.41;72.36;102420.59;5010659;28;20029;-66
2023/04/05 08:54:33;;;;;;;8.57;5.05;;;;;;;8.42;70.27;102420.59;4991214;28;20022;-65
2023/04/05 08:56:58;;;;;;;12.20;5.20;;;;;;;8.52;69.45;102424.09;5020414;28;20037;-66
2023/04/05 08:59:25;;;;;;;9.65;5.18;;;;;;;8.70;68.45;102425.03;5011326;28;20387;-67
2023/04/05 09:01:51;;;;;;;5.53;4.43;;;;;;;8.75;65.18;102418.00;5009915;28;20061;-67
2023/04/05 09:04:22;;;;;;;6.82;4.90;;;;;;;8.79;63.26;102418.91;5026653;28;20029;-66
2023/04/05 09:06:49;;;;;;;10.13;5.35;;;;;;;8.98;63.86;102422.38;5010839;28;20402;-65
2023/04/05 09:09:15;;;;;;;12.85;5.97;;;;;;;9.04;64.17;102416.22;5026638;28;20025;-65
2023/04/05 09:11:42;;;;;;;10.18;4.78;;;;;;;9.23;62.21;102417.06;5026497;28;20128;-67
2023/04/05 09:14:07;;;;;;;6.85;5.07;;;;;;;9.22;60.21;102418.78;5027955;28;20022;-67
2023/04/05 09:16:37;;;;;;;6.43;5.10;;;;;;;9.19;58.18;102417.94;5013516;28;20499;-65
2023/04/05 09:19:02;;;;;;;12.60;4.93;;;;;;;9.04;60.49;102419.75;5006995;28;20046;-65
2023/04/05 09:21:30;;;;;;;12.02;5.68;;;;;;;9.21;61.09;102419.69;5018280;28;20037;-66
2023/04/05 09:23:56;;;;;;;9.38;5.38;;;;;;;9.35;60.09;102414.38;5026977;28;20028;-66
2023/04/05 09:26:23;;;;;;;8.55;5.65;;;;;;;9.45;59.97;102419.63;5026246;28;20499;-64
2023/04/05 09:28:48;;;;;;;11.35;5.03;;;;;;;9.56;57.76;102412.56;5026926;28;20032;-65
2023/04/05 09:31:34;;;;;;;14.15;4.95;;;;;;;9.72;60.40;102420.34;5026211;28;20022;-66
2023/04/05 09:34:03;;;;;;;7.97;5.32;;;;;;;9.84;60.50;102415.03;5028176;28;20017;-66
2023/04/05 09:36:31;;;;;;;12.25;5.47;;;;;;;9.71;54.49;102410.72;5024499;28;20030;-66
2023/04/05 09:39:05;;;;;;;9.02;5.57;;;;;;;9.83;53.74;102413.31;5025865;28;20379;-66
2023/04/05 09:41:31;;;;;;;14.07;5.15;;;;;;;9.79;55.52;102408.94;5008556;28;20052;-67
2023/04/05 09:43:56;;;;;;;8.95;5.78;;;;;;;9.91;55.12;102413.28;5026705;28;20048;-65
2023/04/05 09:46:30;;;;;;;7.35;4.75;;;;;;;9.93;55.66;102408.84;5024911;28;20043;-66
2023/04/05 09:48:55;;;;;;;8.13;5.22;;;;;;;9.94;55.69;102412.38;5026458;28;20073;-66
2023/04/05 09:51:21;;;;;;;9.75;4.90;;;;;;;10.01;54.54;102413.19;5025062;28;20029;-62
2023/04/05 09:54:03;;;;;;;10.95;5.53;;;;;;;10.09;53.92;102400.88;5007857;28;20109;-65
2023/04/05 09:56:30;;;;;;;13.90;5.90;;;;;;;10.27;54.40;102402.50;5025775;28;20128;-66
2023/04/05 09:59:08;;;;;;;9.65;5.78;;;;;;;10.11;54.17;102399.97;5008535;28;20038;-64
2023/04/05 10:01:33;;;;;;;12.38;6.20;;;;;;;9.92;53.39;102393.06;5007829;28;20148;-65
2023/04/05 10:03:59;;;;;;;11.23;5.60;;;;;;;9.45;51.45;102398.56;5025970;28;20025;-67
2023/04/05 10:06:43;;;;;;;12.88;6.00;;;;;;;9.58;50.48;102394.97;5026687;28;20041;-66
2023/04/05 10:09:10;;;;;;;8.45;5.47;;;;;;;9.95;51.04;102393.94;5024294;28;20044;-65
2023/04/05 10:11:37;;;;;;;10.50;5.80;;;;;;;10.25;49.70;102391.09;5026238;28;20045;-65
2023/04/05 10:14:05;;;;;;;11.38;5.55;;;;;;;10.34;47.96;102388.38;5006700;28;20482;-67
2023/04/05 10:17:11;;;;;;;13.43;5.30;;;;;;;10.53;46.82;102384.75;5008658;28;20090;-67
2023/04/05 10:20:01;;;;;;;10.27;5.40;;;;;;;10.67;47.24;102390.78;4995388;28;20071;-66
2023/04/05 10:22:36;;;;;;;8.52;5.07;;;;;;;10.68;46.45;102376.69;5025941;28;20078;-65
2023/04/05 10:25:09;;;;;;;11.35;5.78;;;;;;;10.52;47.71;102383.00;5009863;28;20492;-67
2023/04/05 10:27:40;;;;;;;9.57;5.90;;;;;;;10.76;50.19;102392.44;5006299;28;20480;-64
2023/04/05 10:30:07;;;;;;;10.45;5.80;;;;;;;10.95;47.73;102386.97;5018591;28;20048;-65
2023/04/05 10:33:03;;;;;;;11.50;5.25;;;;;;;10.84;48.74;102382.69;5026665;28;20029;-65
2023/04/05 10:36:01;;;;;;;10.25;5.82;;;;;;;11.00;50.39;102379.91;5023896;28;20112;-66
2023/04/05 10:39:09;;;;;;;8.05;5.82;;;;;;;11.07;50.22;102381.56;5025059;28;20623;-66
2023/04/05 10:41:46;;;;;;;9.20;6.10;;;;;;;11.33;46.62;102377.75;4925670;29;20066;-67
2023/04/05 10:44:12;;;;;;;8.85;6.03;;;;;;;11.43;46.46;102377.63;4994402;28;20120;-65
2023/04/05 10:46:39;;;;;;;7.97;5.32;;;;;;;11.69;45.10;102374.66;4988883;28;20117;-65
2023/04/05 10:49:18;;;;;;;9.30;5.55;;;;;;;11.09;46.47;102374.53;5006534;28;20088;-65
2023/04/05 10:51:44;;;;;;;11.13;6.15;;;;;;;10.94;48.92;102369.41;4989186;28;20048;-68
2023/04/05 10:54:10;;;;;;;10.18;5.45;;;;;;;11.42;51.34;102362.69;5004619;28;20018;-66
2023/04/05 10:56:36;;;;;;;9.30;5.97;;;;;;;11.93;47.08;102358.47;5006125;28;20091;-67
2023/04/05 10:59:02;;;;;;;17.05;6.07;;;;;;;12.03;50.32;102352.13;5005752;28;20113;-67
2023/04/05 11:01:28;;;;;;;10.80;5.38;;;;;;;11.72;48.61;102355.25;4986767;28;20476;-66
2023/04/05 11:03:54;;;;;;;11.05;6.20;;;;;;;12.17;49.43;102353.72;5007797;28;20068;-66
2023/04/05 11:06:28;;;;;;;8.63;6.10;;;;;;;12.23;48.09;102353.63;5012467;28;20042;-65
2023/04/05 11:08:58;;;;;;;12.48;6.53;;;;;;;12.36;43.22;102347.25;5004599;28;20025;-67
2023/04/05 11:11:24;;;;;;;8.02;5.50;;;;;;;12.48;43.02;102354.06;4996424;28;20420;-66
2023/04/05 11:13:54;;;;;;;9.27;5.97;;;;;;;12.41;45.17;102346.28;5025370;28;20032;-66
2023/04/05 11:16:20;;;;;;;9.25;5.80;;;;;;;12.77;41.46;102343.88;5023525;28;20029;-64
2023/04/05 11:18:47;;;;;;;9.20;5.80;;;;;;;12.19;42.58;102352.78;5025021;28;20057;-65
2023/04/05 11:21:20;;;;;;;10.15;6.20;;;;;;;12.27;43.60;102347.38;5023363;28;20045;-66
2023/04/05 11:23:59;;;;;;;9.52;5.93;;;;;;;12.28;44.04;102335.91;5024472;28;20473;-66